Time;durP1;ratioP1;P1;durP2;ratioP2;P2;SDS_P1;SDS_P2;PMS_P1;PMS_P2;Temp;Humidity;BMP_temperature;BMP_pressure;BME280_temperature;BME280_humidity;BME280_pressure;Samples;Min_cycle;Max_cycle;Signal;HPM_P1;HPM_P2
2022/10/23 00:01:31;;;;;;;26.67;11.55;;;15.00;99.90;;;;;;6312101;22;20002;-86
2022/10/23 00:04:00;;;;;;;14.50;7.85;;;15.00;99.90;;;;;;6311414;22;20427;-85
2022/10/23 00:06:26;;;;;;;11.10;6.03;;;15.00;99.90;;;;;;6312090;22;19994;-85
2022/10/23 00:08:52;;;;;;;7.85;4.95;;;15.00;99.90;;;;;;6311213;22;19990;-85
2022/10/23 00:11:21;;;;;;;8.35;5.05;;;15.10;99.90;;;;;;6311778;22;20013;-88
2022/10/23 00:13:48;;;;;;;7.05;4.82;;;15.00;99.90;;;;;;6312245;22;20079;-85
2022/10/23 00:16:14;;;;;;;12.68;5.65;;;15.00;99.90;;;;;;6312074;22;20028;-87
2022/10/23 00:18:40;;;;;;;10.45;5.90;;;15.00;99.90;;;;;;6311881;22;19991;-89
2022/10/23 00:21:08;;;;;;;11.80;6.53;;;15.10;99.90;;;;;;6312023;22;20052;-85
2022/10/23 00:23:34;;;;;;;10.50;7.07;;;15.00;99.90;;;;;;6339262;22;19986;-87
2022/10/23 00:26:00;;;;;;;11.05;6.75;;;15.00;99.90;;;;;;6339390;22;19987;-87
2022/10/23 00:28:26;;;;;;;11.45;6.68;;;15.00;99.90;;;;;;6311787;22;19998;-87
2022/10/23 00:30:51;;;;;;;13.38;7.90;;;15.00;99.90;;;;;;6311673;22;20007;-85
2022/10/23 00:33:17;;;;;;;10.25;5.88;;;15.00;99.90;;;;;;6311666;22;20314;-85
2022/10/23 00:35:43;;;;;;;10.18;5.95;;;15.00;99.90;;;;;;6311912;22;19995;-86
2022/10/23 00:38:10;;;;;;;10.77;5.40;;;15.00;99.90;;;;;;6311665;22;20018;-85
2022/10/23 00:40:37;;;;;;;8.95;5.90;;;15.00;99.90;;;;;;6311710;22;20086;-86
2022/10/23 00:43:05;;;;;;;10.95;5.65;;;15.00;99.90;;;;;;6339521;22;20411;-87
2022/10/23 00:45:32;;;;;;;14.02;7.60;;;15.00;99.90;;;;;;6311766;22;20022;-89
2022/10/23 00:48:02;;;;;;;12.90;6.25;;;15.00;99.90;;;;;;6312016;22;20281;-84
2022/10/23 00:50:31;;;;;;;14.45;5.93;;;15.00;99.90;;;;;;6311972;22;20101;-88
2022/10/23 00:53:02;;;;;;;14.32;6.35;;;15.00;99.90;;;;;;6285988;22;20023;-86
2022/10/23 00:55:29;;;;;;;16.63;7.68;;;14.90;99.90;;;;;;6339374;22;20308;-85
2022/10/23 00:57:55;;;;;;;12.85;6.70;;;14.90;99.90;;;;;;6339109;22;19994;-84
2022/10/23 01:00:41;;;;;;;10.55;6.53;;;14.80;99.90;;;;;;6311226;22;20077;-86
2022/10/23 01:03:07;;;;;;;12.00;6.28;;;14.80;99.90;;;;;;6311632;22;19995;-85
2022/10/23 01:05:52;;;;;;;9.98;6.60;;;14.70;99.90;;;;;;6339036;22;20307;-87
2022/10/23 01:08:32;;;;;;;10.02;6.40;;;14.60;99.90;;;;;;6310994;22;19998;-87
2022/10/23 01:11:16;;;;;;;12.27;7.10;;;14.60;99.90;;;;;;6339151;22;20442;-86
2022/10/23 01:14:08;;;;;;;14.25;7.25;;;14.50;99.90;;;;;;6311477;22;20003;-87
2022/10/23 01:17:03;;;;;;;11.13;7.15;;;14.50;99.90;;;;;;6331902;22;19995;-85
2022/10/23 01:20:01;;;;;;;12.80;7.75;;;14.40;99.90;;;;;;6312320;22;20299;-85
2022/10/23 01:22:51;;;;;;;13.65;8.40;;;14.40;99.90;;;;;;6246590;22;19995;-86
2022/10/23 01:25:38;;;;;;;14.88;8.50;;;14.30;99.90;;;;;;6313433;22;19995;-85
2022/10/23 01:28:08;;;;;;;13.55;8.38;;;14.30;99.90;;;;;;6340517;22;19991;-87
2022/10/23 01:30:38;;;;;;;13.65;7.82;;;14.30;99.90;;;;;;6313517;22;20007;-85
2022/10/23 01:33:08;;;;;;;14.45;8.10;;;14.30;99.90;;;;;;6312908;22;20022;-86
2022/10/23 01:35:48;;;;;;;12.27;6.90;;;14.20;99.90;;;;;;6340943;22;19998;-84
2022/10/23 01:38:18;;;;;;;13.20;6.38;;;14.20;99.90;;;;;;6340791;22;20048;-85
2022/10/23 01:41:19;;;;;;;10.55;6.28;;;14.20;99.90;;;;;;6313501;22;20006;-84
2022/10/23 01:43:57;;;;;;;12.10;6.97;;;14.10;99.90;;;;;;6184696;23;19993;-87
2022/10/23 01:46:24;;;;;;;15.48;6.95;;;14.10;99.90;;;;;;6184760;23;19997;-85
2022/10/23 01:48:55;;;;;;;10.70;6.35;;;14.10;99.90;;;;;;6159575;23;19997;-89
2022/10/23 01:51:24;;;;;;;11.77;7.00;;;14.10;99.90;;;;;;6175069;23;20012;-86
2022/10/23 01:53:54;;;;;;;11.00;6.85;;;14.10;99.90;;;;;;6159577;23;20101;-87
2022/10/23 01:56:24;;;;;;;10.98;6.65;;;14.00;99.90;;;;;;6159575;23;20079;-86
2022/10/23 01:58:54;;;;;;;10.52;7.10;;;14.00;99.90;;;;;;6159639;23;20032;-87
2022/10/23 02:01:23;;;;;;;11.00;7.60;;;14.00;99.90;;;;;;6184700;23;20005;-87
2022/10/23 02:03:50;;;;;;;11.75;7.53;;;14.00;99.90;;;;;;6159042;23;20001;-85
2022/10/23 02:06:16;;;;;;;11.82;6.82;;;14.00;99.90;;;;;;6159486;23;19994;-86
2022/10/23 02:08:42;;;;;;;12.65;7.85;;;13.90;99.90;;;;;;6159473;23;20013;-87
2022/10/23 02:11:14;;;;;;;12.77;8.70;;;13.90;99.90;;;;;;6188877;23;20429;-84
2022/10/23 02:13:45;;;;;;;12.13;8.32;;;13.80;99.90;;;;;;6189140;23;20001;-84
2022/10/23 02:16:28;;;;;;;15.63;9.07;;;13.80;99.90;;;;;;6214529;23;19997;-86
2022/10/23 02:19:06;;;;;;;13.00;8.30;;;13.80;99.90;;;;;;6193078;22;19997;-88
2022/10/23 02:21:44;;;;;;;15.55;7.72;;;13.70;99.90;;;;;;6281862;22;20003;-86
2022/10/23 02:24:14;;;;;;;12.95;7.75;;;13.60;99.90;;;;;;6282029;22;20373;-89
2022/10/23 02:27:11;;;;;;;16.25;7.78;;;13.60;99.90;;;;;;6282183;22;20003;-85
2022/10/23 02:29:51;;;;;;;9.27;6.90;;;13.60;99.90;;;;;;6279828;22;20002;-88
2022/10/23 02:32:20;;;;;;;12.10;7.25;;;13.50;99.90;;;;;;6281073;22;20056;-87
2022/10/23 02:34:46;;;;;;;10.18;6.97;;;13.50;99.90;;;;;;6281690;22;20019;-86
2022/10/23 02:37:13;;;;;;;13.00;8.13;;;13.50;99.90;;;;;;6281344;22;20003;-85
2022/10/23 02:39:39;;;;;;;11.43;8.35;;;13.50;99.90;;;;;;6281895;22;20335;-87
2022/10/23 02:42:35;;;;;;;10.77;7.40;;;13.50;99.90;;;;;;6281503;22;19999;-85
2022/10/23 02:45:18;;;;;;;13.85;7.93;;;13.40;99.90;;;;;;6309016;22;20408;-85
2022/10/23 02:47:49;;;;;;;11.55;7.65;;;13.50;99.90;;;;;;6281658;22;19995;-86
2022/10/23 02:50:18;;;;;;;12.63;8.80;;;13.40;99.90;;;;;;6281497;22;20481;-86
2022/10/23 02:52:57;;;;;;;15.27;9.32;;;13.40;99.90;;;;;;6308488;22;20002;-87
2022/10/23 02:55:51;;;;;;;13.90;12.50;;;13.40;99.90;;;;;;6281712;22;19999;-87
2022/10/23 02:58:26;;;;;;;15.05;7.88;;;13.30;99.90;;;;;;6281375;22;20308;-88
2022/10/23 03:00:58;;;;;;;15.45;13.88;;;13.30;99.90;;;;;;6281613;22;20025;-87
2022/10/23 03:03:38;;;;;;;17.50;9.75;;;13.30;99.90;;;;;;6281842;22;19999;-87
2022/10/23 03:06:04;;;;;;;23.10;11.55;;;13.20;99.90;;;;;;6281347;22;20670;-88
2022/10/23 03:08:40;;;;;;;26.25;15.15;;;13.20;99.90;;;;;;6281440;22;20056;-87
2022/10/23 03:11:06;;;;;;;23.45;14.38;;;13.10;99.90;;;;;;6280554;22;20010;-87
2022/10/23 03:13:32;;;;;;;20.83;14.77;;;13.20;99.90;;;;;;6280915;22;20003;-88
2022/10/23 03:15:57;;;;;;;20.67;13.65;;;13.20;99.90;;;;;;6281581;22;20013;-89
2022/10/23 03:18:23;;;;;;;20.25;14.48;;;13.20;99.90;;;;;;6306971;22;20078;-88
2022/10/23 03:20:49;;;;;;;25.23;14.43;;;13.20;99.90;;;;;;6308518;22;20045;-87
2022/10/23 03:23:15;;;;;;;26.30;13.77;;;13.20;99.90;;;;;;6281245;22;20074;-86
2022/10/23 03:25:40;;;;;;;26.70;15.68;;;13.20;99.90;;;;;;6281168;22;20412;-86
2022/10/23 03:28:06;;;;;;;34.40;20.38;;;13.20;99.90;;;;;;6280433;22;19991;-85
2022/10/23 03:30:32;;;;;;;30.52;17.77;;;13.30;99.90;;;;;;6281199;22;20007;-89
2022/10/23 03:32:58;;;;;;;35.70;21.73;;;13.30;99.90;;;;;;6308473;22;19991;-85
2022/10/23 03:35:24;;;;;;;31.88;19.13;;;13.30;99.90;;;;;;6306923;22;20138;-85
2022/10/23 03:37:49;;;;;;;22.90;14.18;;;13.40;99.90;;;;;;6281207;22;19999;-85
2022/10/23 03:40:15;;;;;;;23.95;15.23;;;13.40;99.90;;;;;;6281116;22;19995;-88
2022/10/23 03:42:41;;;;;;;27.40;13.25;;;13.50;99.90;;;;;;6307207;22;19999;-87
2022/10/23 03:45:07;;;;;;;23.65;12.38;;;13.50;99.90;;;;;;6280936;22;20330;-88
2022/10/23 03:47:34;;;;;;;18.02;11.50;;;13.40;99.90;;;;;;6281006;22;19991;-87
2022/10/23 03:50:00;;;;;;;17.10;11.50;;;13.50;99.90;;;;;;6280878;22;20003;-88
2022/10/23 03:52:26;;;;;;;15.75;11.45;;;13.50;99.90;;;;;;6280840;22;20003;-86
2022/10/23 03:54:52;;;;;;;18.15;12.30;;;13.50;99.90;;;;;;6307770;22;19999;-86
2022/10/23 03:57:18;;;;;;;18.17;12.43;;;13.70;99.90;;;;;;6281297;22;20278;-88
2022/10/23 03:59:43;;;;;;;17.52;13.07;;;13.80;99.90;;;;;;6280801;22;19992;-87
2022/10/23 04:02:09;;;;;;;20.20;14.02;;;13.90;99.90;;;;;;6280761;22;20003;-85
2022/10/23 04:04:35;;;;;;;19.70;13.95;;;14.00;99.90;;;;;;6293912;22;20354;-86
2022/10/23 04:07:01;;;;;;;26.58;14.88;;;14.10;99.90;;;;;;6311510;22;19995;-86
2022/10/23 04:09:27;;;;;;;22.38;14.60;;;14.20;99.90;;;;;;6311416;22;19995;-88
2022/10/23 04:11:55;;;;;;;25.00;15.95;;;14.30;99.90;;;;;;6311771;22;20006;-86
2022/10/23 04:14:20;;;;;;;24.67;15.40;;;14.30;99.90;;;;;;6339201;22;20391;-87
2022/10/23 04:16:46;;;;;;;22.40;14.85;;;14.30;99.90;;;;;;6311324;22;20079;-86
2022/10/23 04:19:12;;;;;;;26.38;14.73;;;14.40;99.90;;;;;;6312027;22;20137;-88
2022/10/23 04:21:38;;;;;;;22.42;14.82;;;14.40;99.90;;;;;;6312034;22;20002;-88
2022/10/23 04:24:04;;;;;;;25.67;14.70;;;14.40;99.90;;;;;;6311662;22;20045;-86
2022/10/23 04:26:30;;;;;;;18.98;13.35;;;14.40;99.90;;;;;;6311896;22;20003;-86
2022/10/23 04:28:56;;;;;;;21.40;13.73;;;14.40;99.90;;;;;;6311978;22;20358;-85
2022/10/23 04:31:22;;;;;;;23.45;14.48;;;14.40;99.90;;;;;;6311726;22;20034;-87
2022/10/23 04:33:47;;;;;;;20.52;13.93;;;14.40;99.90;;;;;;6311763;22;19999;-86
2022/10/23 04:36:13;;;;;;;19.58;14.48;;;14.40;99.90;;;;;;6339420;22;19994;-86
2022/10/23 04:38:39;;;;;;;18.80;14.13;;;14.30;99.90;;;;;;6312069;22;19995;-88
2022/10/23 04:41:05;;;;;;;21.13;15.52;;;14.30;99.90;;;;;;6311904;22;20003;-85
2022/10/23 04:43:31;;;;;;;23.17;15.65;;;14.20;99.90;;;;;;6311823;22;19999;-87
2022/10/23 04:45:57;;;;;;;22.52;15.52;;;14.10;99.90;;;;;;6311562;22;20074;-88
2022/10/23 04:48:22;;;;;;;23.17;15.43;;;14.10;99.90;;;;;;6311334;22;20029;-86
2022/10/23 04:50:59;;;;;;;23.73;15.73;;;14.00;99.90;;;;;;6311110;22;20003;-86
2022/10/23 04:53:26;;;;;;;30.30;18.48;;;13.90;99.90;;;;;;6311761;22;19999;-88
2022/10/23 04:55:55;;;;;;;26.85;17.95;;;13.90;99.90;;;;;;6341109;22;20403;-86
2022/10/23 04:58:22;;;;;;;27.40;18.38;;;13.80;99.90;;;;;;6341079;22;20403;-85
2022/10/23 05:00:48;;;;;;;27.00;17.15;;;13.70;99.90;;;;;;6313742;22;20074;-88
2022/10/23 05:03:14;;;;;;;25.00;17.52;;;13.70;99.90;;;;;;6313705;22;19998;-86
2022/10/23 05:05:41;;;;;;;24.73;16.80;;;13.70;99.90;;;;;;6285248;22;20007;-85
2022/10/23 05:08:07;;;;;;;25.10;17.58;;;13.60;99.90;;;;;;6282194;22;19995;-87
2022/10/23 05:10:33;;;;;;;25.98;16.95;;;13.60;99.90;;;;;;6282225;22;20011;-88
2022/10/23 05:12:59;;;;;;;27.08;18.60;;;13.50;99.90;;;;;;6282064;22;20057;-87
2022/10/23 05:15:25;;;;;;;25.30;17.92;;;13.50;99.90;;;;;;6282224;22;20378;-89
2022/10/23 05:17:56;;;;;;;45.10;27.95;;;13.40;99.90;;;;;;6282175;22;20018;-86
2022/10/23 05:20:27;;;;;;;84.25;49.85;;;13.40;99.90;;;;;;6282077;22;20522;-85
2022/10/23 05:22:55;;;;;;;85.82;52.03;;;13.40;99.90;;;;;;6282432;22;20049;-87
2022/10/23 05:25:21;;;;;;;78.05;48.88;;;13.40;99.90;;;;;;6282288;22;19995;-89
2022/10/23 05:27:47;;;;;;;61.45;39.63;;;13.30;99.90;;;;;;6309669;22;20049;-85
2022/10/23 05:30:13;;;;;;;57.30;33.63;;;13.30;99.90;;;;;;6282344;22;20010;-86
2022/10/23 05:32:39;;;;;;;63.95;33.10;;;13.30;99.90;;;;;;6282191;22;19996;-86
2022/10/23 05:35:26;;;;;;;55.63;34.30;;;13.30;99.90;;;;;;6282619;22;20010;-87
2022/10/23 05:37:53;;;;;;;51.70;30.55;;;13.30;99.90;;;;;;6281809;22;20082;-87
2022/10/23 05:40:19;;;;;;;55.63;32.72;;;13.30;99.90;;;;;;6309372;22;20315;-87
2022/10/23 05:42:45;;;;;;;63.33;34.97;;;13.30;99.90;;;;;;6282188;22;19999;-86
2022/10/23 05:45:11;;;;;;;54.83;33.35;;;13.30;99.90;;;;;;6282308;22;19995;-87
2022/10/23 05:47:37;;;;;;;53.92;34.05;;;13.40;99.90;;;;;;6282260;22;19991;-85
2022/10/23 05:50:03;;;;;;;53.85;32.08;;;13.40;99.90;;;;;;6280925;22;20015;-86
2022/10/23 05:52:29;;;;;;;48.00;26.90;;;13.40;99.90;;;;;;6279973;22;20025;-87
2022/10/23 05:54:55;;;;;;;43.85;26.85;;;13.50;99.90;;;;;;6306895;22;20067;-85
2022/10/23 05:57:20;;;;;;;48.17;26.30;;;13.50;99.90;;;;;;6281285;22;19995;-87
2022/10/23 05:59:46;;;;;;;43.08;27.42;;;13.60;99.90;;;;;;6281204;22;20081;-87
2022/10/23 06:02:14;;;;;;;50.50;33.78;;;13.50;99.90;;;;;;6281420;22;20289;-85
2022/10/23 06:04:40;;;;;;;58.83;37.90;;;13.50;99.90;;;;;;6293245;22;20014;-87
2022/10/23 06:07:06;;;;;;;62.60;38.30;;;13.60;99.90;;;;;;6311843;22;20307;-85
2022/10/23 06:16:18;;;;;;;68.80;44.00;;;13.80;99.90;;;;;;6236277;23;20019;-86
2022/10/23 06:19:21;;;;;;;81.95;55.42;;;13.90;99.90;;;;;;6218207;23;20003;-86
2022/10/23 06:22:42;;;;;;;67.07;45.28;;;14.00;99.90;;;;;;6218352;23;20000;-86
2022/10/23 06:25:52;;;;;;;;;;;;;;;;;;;;;
2022/10/23 06:28:52;;;;;;;41.30;25.50;;;14.30;99.90;;;;;;6244281;23;20391;-87
2022/10/23 06:31:19;;;;;;;31.85;22.35;;;14.40;99.90;;;;;;6115909;23;20066;-87
2022/10/23 06:34:05;;;;;;;28.73;20.80;;;14.60;99.90;;;;;;6219156;23;20031;-87
2022/10/23 06:36:38;;;;;;;27.27;18.38;;;14.80;99.90;;;;;;6219049;23;19992;-88
2022/10/23 06:39:20;;;;;;;30.75;18.65;;;14.90;99.90;;;;;;6219088;23;20050;-84
2022/10/23 06:41:51;;;;;;;27.25;16.40;;;15.00;99.90;;;;;;6219073;23;19999;-86
2022/10/23 06:44:42;;;;;;;23.25;14.98;;;15.10;99.90;;;;;;6218884;23;20031;-85
2022/10/23 06:47:14;;;;;;;17.85;13.73;;;15.20;99.90;;;;;;6218814;23;20492;-86
2022/10/23 06:49:42;;;;;;;17.95;13.05;;;15.30;99.90;;;;;;6262084;22;19995;-86
2022/10/23 06:52:13;;;;;;;18.50;13.30;;;15.40;99.90;;;;;;6312095;22;19999;-87
2022/10/23 06:54:39;;;;;;;18.95;14.57;;;15.40;99.90;;;;;;6312590;22;19995;-86
2022/10/23 06:57:05;;;;;;;22.30;15.25;;;15.50;99.90;;;;;;6312345;22;19994;-85
2022/10/23 06:59:36;;;;;;;21.65;14.02;;;15.50;99.90;;;;;;6312899;22;20002;-87
2022/10/23 07:02:02;;;;;;;20.95;14.70;;;15.70;99.90;;;;;;6312877;22;20035;-86
2022/10/23 07:04:40;;;;;;;20.73;15.70;;;15.70;99.90;;;;;;6306762;22;20419;-84
2022/10/23 07:07:32;;;;;;;23.58;14.85;;;15.90;99.90;;;;;;6312354;22;20035;-86
2022/10/23 07:09:58;;;;;;;28.65;15.38;;;15.90;99.90;;;;;;6337861;22;19995;-86
2022/10/23 07:13:22;;;;;;;;;;;;;;;;;;;;;
2022/10/23 07:19:22;;;;;;;22.80;12.98;;;16.30;99.90;;;;;;6182707;23;20085;-86
2022/10/23 07:22:29;;;;;;;18.75;11.95;;;16.40;99.90;;;;;;6158728;23;20445;-85
2022/10/23 07:25:15;;;;;;;21.08;12.40;;;16.40;99.90;;;;;;6159135;23;20389;-85
2022/10/23 07:27:43;;;;;;;17.15;11.43;;;16.60;99.90;;;;;;6158437;23;20001;-86
2022/10/23 07:30:13;;;;;;;16.83;11.32;;;16.70;99.90;;;;;;6158814;23;20001;-87
2022/10/23 07:32:39;;;;;;;19.27;11.10;;;16.70;99.90;;;;;;6158738;23;20001;-85
2022/10/23 07:35:05;;;;;;;15.15;10.85;;;16.80;99.90;;;;;;6158771;23;20381;-86
2022/10/23 07:37:39;;;;;;;15.25;10.32;;;16.90;99.90;;;;;;6158692;23;20004;-84
2022/10/23 07:40:06;;;;;;;16.25;9.57;;;16.90;99.90;;;;;;6158700;23;20494;-84
2022/10/23 07:42:35;;;;;;;11.25;8.25;;;17.00;99.90;;;;;;6159076;23;20423;-85
2022/10/23 07:45:35;;;;;;;10.48;7.70;;;17.10;99.90;;;;;;6160123;23;20087;-85
2022/10/23 07:48:10;;;;;;;13.45;8.65;;;17.00;99.90;;;;;;6158136;23;20024;-86
2022/10/23 07:50:37;;;;;;;13.50;8.48;;;17.20;99.90;;;;;;6158588;23;20016;-87
2022/10/23 07:53:03;;;;;;;15.10;8.50;;;17.30;99.90;;;;;;6276814;22;20002;-87
2022/10/23 07:55:29;;;;;;;14.40;8.70;;;17.30;99.90;;;;;;6311640;22;20307;-85
2022/10/23 07:57:55;;;;;;;18.15;10.25;;;17.30;99.90;;;;;;6311763;22;20001;-86
2022/10/23 08:00:27;;;;;;;13.55;8.95;;;17.30;99.90;;;;;;6311764;22;20007;-85
2022/10/23 08:02:52;;;;;;;11.90;8.25;;;17.30;99.90;;;;;;6312241;22;19995;-85
2022/10/23 08:05:21;;;;;;;11.20;7.35;;;17.40;99.90;;;;;;6311181;22;20014;-85
2022/10/23 08:07:52;;;;;;;11.32;7.45;;;17.50;99.90;;;;;;6311748;22;19998;-85
2022/10/23 08:10:18;;;;;;;12.07;7.88;;;17.60;99.90;;;;;;6312179;22;20304;-86
2022/10/23 08:12:43;;;;;;;15.40;7.90;;;17.70;99.90;;;;;;6309465;22;20414;-85
2022/10/23 08:15:09;;;;;;;15.93;9.38;;;17.70;99.90;;;;;;6338917;22;20019;-87
2022/10/23 08:17:35;;;;;;;13.60;9.43;;;17.80;99.90;;;;;;6311900;22;20604;-87
2022/10/23 08:20:01;;;;;;;12.07;9.75;;;17.90;99.90;;;;;;6311576;22;19998;-86
2022/10/23 08:22:27;;;;;;;20.45;9.75;;;17.90;99.90;;;;;;6311472;22;20397;-87
2022/10/23 08:24:52;;;;;;;14.40;8.75;;;18.00;99.90;;;;;;6311320;22;20033;-86
2022/10/23 08:27:18;;;;;;;9.23;7.22;;;18.10;99.90;;;;;;6339240;22;19994;-86
2022/10/23 08:29:44;;;;;;;11.60;8.10;;;18.20;99.90;;;;;;6311193;22;20046;-87
2022/10/23 08:32:10;;;;;;;12.07;8.82;;;18.30;99.90;;;;;;6311858;22;19991;-87
2022/10/23 08:34:36;;;;;;;10.32;7.97;;;18.40;99.90;;;;;;6311601;22;20308;-85
2022/10/23 08:37:02;;;;;;;13.77;8.48;;;18.40;99.90;;;;;;6312036;22;20037;-85
2022/10/23 08:39:28;;;;;;;12.38;8.23;;;18.40;99.90;;;;;;6311805;22;19994;-87
2022/10/23 08:41:54;;;;;;;13.80;8.10;;;18.50;99.90;;;;;;6311611;22;20303;-86
2022/10/23 08:44:19;;;;;;;8.82;7.68;;;18.60;99.90;;;;;;6311552;22;19991;-86
2022/10/23 08:47:01;;;;;;;10.07;7.53;;;18.70;99.90;;;;;;6311769;22;19998;-86
2022/10/23 08:49:50;;;;;;;9.90;6.90;;;18.70;99.90;;;;;;6312082;22;20002;-85
2022/10/23 08:52:34;;;;;;;8.50;6.20;;;18.90;99.90;;;;;;6339499;22;20363;-84
2022/10/23 08:55:22;;;;;;;10.88;7.10;;;18.90;99.90;;;;;;6311981;22;19998;-86
2022/10/23 08:58:04;;;;;;;11.93;7.63;;;18.90;99.90;;;;;;6311765;22;19995;-86
2022/10/23 09:00:31;;;;;;;11.75;7.25;;;19.00;99.90;;;;;;6311929;22;20005;-87
2022/10/23 09:03:01;;;;;;;10.80;7.68;;;19.20;99.90;;;;;;6311586;22;20006;-88
2022/10/23 09:05:38;;;;;;;12.77;7.35;;;19.30;99.90;;;;;;6311348;22;20037;-87
2022/10/23 09:08:41;;;;;;;11.07;6.43;;;19.50;99.90;;;;;;6311444;22;20009;-86
2022/10/23 09:11:11;;;;;;;9.10;6.57;;;19.60;99.90;;;;;;6311081;22;20003;-87
2022/10/23 09:13:58;;;;;;;8.52;6.35;;;19.70;99.90;;;;;;6311728;22;20002;-86
2022/10/23 09:16:30;;;;;;;7.68;6.00;;;19.70;99.90;;;;;;6339330;22;19991;-86
2022/10/23 09:18:56;;;;;;;;;;;19.80;99.90;;;;;;6312374;22;19991;-86
2022/10/23 09:21:27;;;;;;;8.30;5.47;;;20.00;99.90;;;;;;6311807;22;19894;-85
2022/10/23 09:23:52;;;;;;;9.48;6.20;;;20.10;99.90;;;;;;6311330;22;19995;-88
2022/10/23 09:26:18;;;;;;;11.38;6.00;;;20.50;99.90;;;;;;6311505;22;20002;-87
2022/10/23 09:28:55;;;;;;;6.88;5.15;;;20.50;99.90;;;;;;6311602;22;20086;-86
2022/10/23 09:31:22;;;;;;;10.75;6.28;;;;;;;;;;6311138;22;19999;-87
2022/10/23 09:34:00;;;;;;;11.52;6.38;;;20.80;99.90;;;;;;6311639;22;20476;-85
2022/10/23 09:36:28;;;;;;;11.50;6.70;;;21.00;99.90;;;;;;6311661;22;20031;-85
2022/10/23 09:38:55;;;;;;;11.60;5.53;;;;;;;;;;6311249;22;19999;-85
2022/10/23 09:41:29;;;;;;;10.05;5.82;;;21.20;99.90;;;;;;6312877;22;20086;-88
2022/10/23 09:44:07;;;;;;;5.15;4.65;;;;;;;;;;6313618;22;19995;-86
2022/10/23 09:46:39;;;;;;;6.00;4.30;;;21.70;99.90;;;;;;6313551;22;19994;-87
2022/10/23 09:49:06;;;;;;;7.18;5.32;;;21.70;99.90;;;;;;6340611;22;19995;-86
2022/10/23 09:51:32;;;;;;;6.95;5.60;;;21.90;99.90;;;;;;6313126;22;20328;-87
2022/10/23 09:53:59;;;;;;;6.90;6.20;;;;;;;;;;6340969;22;20392;-88
2022/10/23 09:56:34;;;;;;;8.20;6.85;;;;;;;;;;6313381;22;19995;-89
2022/10/23 09:59:21;;;;;;;7.50;6.05;;;;;;;;;;6313026;22;20030;-86
2022/10/23 10:01:49;;;;;;;10.30;8.00;;;;;;;;;;6313213;22;20052;-87
2022/10/23 10:04:16;;;;;;;10.38;6.57;;;22.30;99.90;;;;;;6340503;22;20082;-89
2022/10/23 10:06:43;;;;;;;9.93;6.50;;;22.10;99.90;;;;;;6312445;22;20289;-86
2022/10/23 10:09:15;;;;;;;7.60;5.80;;;22.30;99.90;;;;;;6312986;22;20022;-84
2022/10/23 10:11:44;;;;;;;8.60;6.55;;;22.10;99.90;;;;;;6313342;22;20007;-86
2022/10/23 10:14:39;;;;;;;9.32;5.43;;;21.80;99.90;;;;;;6313135;22;20002;-86
2022/10/23 10:17:07;;;;;;;9.65;6.32;;;;;;;;;;6336464;22;19991;-85
2022/10/23 10:19:52;;;;;;;11.95;6.15;;;;;;;;;;6312693;22;20002;-85
2022/10/23 10:22:21;;;;;;;7.38;5.43;;;;;;;;;;6313045;22;20013;-86
2022/10/23 10:25:17;;;;;;;6.35;5.32;;;;;;;;;;6312946;22;20048;-87
2022/10/23 10:28:01;;;;;;;8.40;4.70;;;22.60;99.90;;;;;;6184463;23;20001;-85
2022/10/23 10:30:49;;;;;;;5.47;4.65;;;22.20;99.90;;;;;;6184440;23;20008;-83
2022/10/23 10:33:25;;;;;;;5.65;4.38;;;22.00;99.90;;;;;;6209502;23;20004;-87
2022/10/23 10:36:09;;;;;;;5.45;3.65;;;21.80;99.90;;;;;;6160175;23;19994;-86
2022/10/23 10:38:35;;;;;;;5.03;4.45;;;21.70;99.90;;;;;;6159393;23;20009;-88
2022/10/23 10:41:15;;;;;;;6.97;4.35;;;21.70;99.90;;;;;;6159391;23;20004;-86
2022/10/23 10:43:55;;;;;;;7.32;4.60;;;21.60;99.90;;;;;;6159455;23;20096;-86
2022/10/23 10:46:37;;;;;;;7.32;5.10;;;21.50;99.90;;;;;;6184725;23;19993;-84
2022/10/23 10:49:14;;;;;;;7.45;5.85;;;21.50;99.90;;;;;;6157965;23;20061;-84
2022/10/23 10:51:49;;;;;;;8.35;5.65;;;21.60;99.90;;;;;;6158158;23;20374;-88
2022/10/23 10:54:30;;;;;;;7.10;5.97;;;;;;;;;;6157957;23;20080;-85
2022/10/23 10:56:58;;;;;;;6.10;5.50;;;;;;;;;;6158733;23;20072;-87
2022/10/23 10:59:28;;;;;;;5.65;5.07;;;;;;;;;;6158174;23;20068;-87
2022/10/23 11:02:20;;;;;;;5.40;4.90;;;;;;;;;;6183380;23;20009;-84
2022/10/23 11:04:50;;;;;;;5.78;5.13;;;;;;;;;;6293334;22;20071;-85
2022/10/23 11:07:18;;;;;;;6.05;4.90;;;;;;;;;;6311647;22;20419;-84
2022/10/23 11:09:45;;;;;;;5.80;4.88;;;;;;;;;;6311740;22;19995;-85
2022/10/23 11:12:18;;;;;;;5.47;4.97;;;;;;;;;;6311908;22;20511;-85
2022/10/23 11:14:45;;;;;;;6.47;5.47;;;;;;;;;;6311772;22;19995;-83
2022/10/23 11:17:15;;;;;;;7.38;6.57;;;;;;;;;;6311329;22;19999;-84
2022/10/23 11:19:45;;;;;;;5.75;5.25;;;;;;;;;;6312114;22;20422;-84
2022/10/23 11:22:21;;;;;;;5.75;5.10;;;;;;;;;;6311163;22;20092;-83
2022/10/23 11:24:53;;;;;;;5.97;5.15;;;;;;;;;;6310926;22;20022;-84
2022/10/23 11:27:30;;;;;;;9.98;7.28;;;;;;;;;;6311123;22;19999;-83
2022/10/23 11:30:02;;;;;;;8.80;6.53;;;;;;;;;;6338873;22;20001;-82
2022/10/23 11:32:51;;;;;;;8.02;5.43;;;22.90;90.50;;;;;;6338914;22;20018;-86
2022/10/23 11:35:32;;;;;;;12.35;10.55;;;22.80;91.00;;;;;;6311687;22;20006;-88
2022/10/23 11:38:07;;;;;;;7.82;6.22;;;22.70;91.10;;;;;;6339269;22;20396;-85
2022/10/23 11:40:45;;;;;;;10.48;7.57;;;22.70;93.90;;;;;;6311500;22;20030;-84
2022/10/23 11:43:57;;;;;;;6.82;5.03;;;22.60;94.10;;;;;;6311452;22;20403;-82
2022/10/23 11:50:23;;;;;;;8.68;5.78;;;22.40;94.80;;;;;;6267323;22;20414;-86
2022/10/23 11:53:22;;;;;;;6.90;5.07;;;22.30;93.00;;;;;;6311681;22;20002;-87
2022/10/23 11:56:02;;;;;;;10.65;6.18;;;22.20;95.10;;;;;;6311449;22;20411;-86
2022/10/23 11:58:52;;;;;;;9.18;5.40;;;22.20;98.80;;;;;;6310980;22;20312;-87
2022/10/23 12:01:30;;;;;;;6.70;4.97;;;22.30;99.30;;;;;;6310959;22;19999;-87
2022/10/23 12:04:13;;;;;;;8.98;5.80;;;22.40;96.90;;;;;;6311246;22;19995;-86
2022/10/23 12:06:42;;;;;;;6.82;5.80;;;;;;;;;;6311792;22;19999;-88
2022/10/23 12:09:22;;;;;;;8.52;5.25;;;;;;;;;;6311360;22;19995;-85
2022/10/23 12:11:50;;;;;;;9.30;4.93;;;;;;;;;;6311199;22;20056;-84
2022/10/23 12:14:27;;;;;;;8.43;4.68;;;;;;;;;;6311229;22;20392;-86
2022/10/23 12:16:59;;;;;;;7.93;4.68;;;;;;;;;;6310989;22;20078;-85
2022/10/23 12:22:50;;;;;;;5.43;4.75;;;;;;;;;;6337638;22;20020;-89
2022/10/23 13:45:34;;;;;;;11.23;5.80;;;21.80;95.00;;;;;;6342642;22;20090;-88
2022/10/23 13:51:57;;;;;;;9.15;6.60;;;21.70;95.30;;;;;;6338608;22;20063;-86
2022/10/23 13:55:32;;;;;;;11.23;6.47;;;21.70;96.10;;;;;;6313121;22;19999;-89
2022/10/23 14:19:02;;;;;;;9.32;6.22;;;21.30;99.60;;;;;;6243947;23;20000;-86
2022/10/23 14:28:32;;;;;;;10.97;6.70;;;21.20;99.90;;;;;;6243859;23;20007;-86
2022/10/23 14:35:02;;;;;;;7.97;5.75;;;21.10;99.90;;;;;;6213043;23;20094;-84
2022/10/23 15:01:53;;;;;;;16.85;7.07;;;20.70;99.90;;;;;;6212667;22;20043;-83
2022/10/23 18:41:38;;;;;;;145.13;65.85;;;16.70;99.90;;;;;;6338566;22;20041;-84
2022/10/23 19:51:49;;;;;;;94.90;50.38;;;15.70;99.90;;;;;;6309812;22;20027;-84
2022/10/23 19:54:36;;;;;;;81.55;42.22;;;15.70;99.90;;;;;;6338528;22;20081;-83
2022/10/23 22:19:42;;;;;;;53.60;29.98;;;14.70;99.90;;;;;;6150554;23;20006;-85
